»·PEaware :: WAT169 KLAS-KSAN

WAT169 :: KLAS-KSAN

FLIGHT INFORMATION

Flight Status: Arrived
Operator:
Walker Air Transport
More flights by this operator :: More flights under this callsign
Pilot: Marty P. (27464)
Aircraft: BOEING 737-800
(B738)
More flights by this aircraft type
Origin: KLAS McCarran Intl
United States
Destination: KSAN San Diego Intl-Lindbergh
United States
More flights between these airports :: More routes between these airports
Route: BOACH8 LVELL LUCKI1
File this flight plan on PilotEdge
Remarks:
Altitude:
(Current/Filed)
28,000ft
Speed:
(Current/Filed)
470kts
Departed: 12-Jul-20 09:04 PM
Arrived: 12-Jul-20 09:48 PM
Distance/Time
Traveled:
225nm/0:43
Distance/Time
To Go:
Arrived

Flight Plot

Page will automatically refresh every two minutes.

Flight plan parsing failed; only flown route is shown


Map Options




Map Legend


Flown Route
Filed Route
Departure Airport
Arrival Airport
Navaid (VOR, NDB)
Fix

Horizontal Profiles

Position Reports

Time Latitude Longitude Heading Altitude Ground
Speed
12-Jul-20 20:50 36.080313 -115.147275 61 2191ft 0kts
12-Jul-20 20:51 36.080313 -115.147275 61 2191ft 0kts
12-Jul-20 20:52 36.080298 -115.147310 61 2191ft 2kts
12-Jul-20 20:53 36.080292 -115.148005 127 2191ft 2kts
12-Jul-20 20:54 36.080513 -115.148207 156 2191ft 0kts
12-Jul-20 20:55 36.080513 -115.148207 156 2191ft 0kts
12-Jul-20 20:56 36.080512 -115.148207 156 2191ft 0kts
12-Jul-20 20:57 36.080442 -115.148165 154 2191ft 3kts
12-Jul-20 20:58 36.077709 -115.146024 97 2191ft 14kts
12-Jul-20 20:59 36.077536 -115.138206 90 2191ft 26kts
12-Jul-20 21:00 36.077546 -115.129555 90 2191ft 23kts
12-Jul-20 21:01 36.077568 -115.125542 89 2191ft 6kts
12-Jul-20 21:02 36.077549 -115.122417 90 2191ft 16kts
12-Jul-20 21:03 36.076421 -115.125404 270 2191ft 66kts
12-Jul-20 21:04 36.076881 -115.182347 269 2908ft 224kts
12-Jul-20 21:05 36.056732 -115.258355 222 6234ft 240kts
12-Jul-20 21:06 35.992550 -115.291819 203 7000ft 248kts
12-Jul-20 21:07 35.921262 -115.307748 188 9680ft 267kts
12-Jul-20 21:08 35.841752 -115.313468 177 11190ft 328kts
12-Jul-20 21:09 35.742290 -115.302064 175 12648ft 371kts
12-Jul-20 21:10 35.638381 -115.295737 183 14934ft 379kts
12-Jul-20 21:11 35.531809 -115.300442 183 17051ft 389kts
12-Jul-20 21:12 35.422490 -115.304812 182 18958ft 399kts
12-Jul-20 21:13 35.310838 -115.309226 182 20734ft 408kts
12-Jul-20 21:14 35.196536 -115.313736 182 22340ft 418kts
12-Jul-20 21:15 35.079263 -115.318345 182 23940ft 425kts
12-Jul-20 21:16 34.960063 -115.323013 182 25354ft 434kts
12-Jul-20 21:17 34.841475 -115.330374 187 26657ft 442kts
12-Jul-20 21:18 34.720421 -115.363569 196 27718ft 451kts
12-Jul-20 21:19 34.599839 -115.413540 199 27833ft 462kts
12-Jul-20 21:21 34.478148 -115.468126 199 27917ft 472kts
12-Jul-20 21:22 34.354430 -115.524276 204 27917ft 480kts
12-Jul-20 21:23 34.235316 -115.598859 201 27918ft 485kts
12-Jul-20 21:24 34.112278 -115.659516 200 27917ft 486kts
12-Jul-20 21:25 33.987286 -115.719702 200 27814ft 487kts
12-Jul-20 21:26 33.862225 -115.779847 200 27689ft 487kts
12-Jul-20 21:27 33.742887 -115.838254 199 27690ft 447kts
12-Jul-20 21:28 33.625435 -115.893096 199 27688ft 454kts
12-Jul-20 21:29 33.519106 -115.964922 223 25610ft 440kts
12-Jul-20 21:30 33.442312 -116.076379 231 22899ft 428kts
12-Jul-20 21:31 33.374066 -116.189197 233 20354ft 412kts
12-Jul-20 21:32 33.291377 -116.276346 207 18039ft 387kts
12-Jul-20 21:33 33.196301 -116.332831 205 16434ft 395kts
12-Jul-20 21:34 33.099903 -116.389243 205 13959ft 379kts
12-Jul-20 21:35 33.012220 -116.441025 210 12652ft 325kts
12-Jul-20 21:36 32.941806 -116.508413 219 11438ft 300kts
12-Jul-20 21:37 32.885339 -116.565540 220 10788ft 267kts
12-Jul-20 21:38 32.825494 -116.624395 220 9429ft 278kts
12-Jul-20 21:38 32.778922 -116.671402 231 8375ft 253kts
12-Jul-20 21:40 32.739994 -116.750016 242 7066ft 223kts
12-Jul-20 21:41 32.709378 -116.816389 244 6005ft 242kts
12-Jul-20 21:41 32.689034 -116.877907 249 5072ft 233kts
12-Jul-20 21:43 32.678808 -116.964070 284 3749ft 229kts
12-Jul-20 21:43 32.691858 -117.018419 286 2916ft 183kts
12-Jul-20 21:44 32.704380 -117.069656 286 2085ft 145kts
12-Jul-20 21:45 32.715729 -117.116258 285 1196ft 148kts
12-Jul-20 21:46 32.726993 -117.162578 285 491ft 148kts
12-Jul-20 21:47 32.734490 -117.193968 260 27ft 19kts
12-Jul-20 21:48 32.734236 -117.196716 285 27ft 13kts
12-Jul-20 21:49 32.733898 -117.198579 176 27ft 2kts
12-Jul-20 21:50 32.733854 -117.198576 177 27ft 0kts

Navigation Log

Ident Type
Flight plan parsing failed, navigation log unavailable